createdAt,value
2022-11-21T04:53:03.673Z,12.03
2022-11-21T04:55:33.408Z,12.90
2022-11-21T04:58:02.430Z,13.80
2022-11-21T05:00:30.900Z,13.80
2022-11-21T05:03:04.456Z,13.40
2022-11-21T05:05:33.390Z,14.33
2022-11-21T05:08:03.804Z,13.50
2022-11-21T05:10:52.173Z,13.40
2022-11-21T05:13:22.320Z,12.97
2022-11-21T05:15:52.031Z,13.47
2022-11-21T05:18:20.910Z,12.67
2022-11-21T05:20:49.381Z,15.73
2022-11-21T05:23:19.222Z,16.23
2022-11-21T05:25:48.128Z,14.23
2022-11-21T05:28:16.852Z,14.00
2022-11-21T05:30:45.361Z,13.57
2022-11-21T05:33:13.935Z,13.93
2022-11-21T05:35:43.648Z,13.60
2022-11-21T05:38:12.919Z,14.67
2022-11-21T05:40:43.042Z,14.57
2022-11-21T05:43:30.790Z,14.30
2022-11-21T05:45:59.260Z,14.77
2022-11-21T05:48:27.864Z,14.13
2022-11-21T05:50:56.410Z,14.23
2022-11-21T05:53:24.822Z,14.37
2022-11-21T05:55:55.007Z,14.23
2022-11-21T05:58:24.492Z,14.50
2022-11-21T06:00:59.942Z,14.80
2022-11-21T06:03:31.092Z,15.03
2022-11-21T06:06:05.297Z,13.80
2022-11-21T06:08:35.679Z,14.60
2022-11-21T06:11:07.032Z,16.20
2022-11-21T06:13:36.557Z,16.13
2022-11-21T06:16:07.126Z,16.13
2022-11-21T06:18:36.953Z,14.70
2022-11-21T06:21:07.609Z,13.93
2022-11-21T06:23:36.684Z,14.73
2022-11-21T06:26:13.109Z,14.97
2022-11-21T06:28:42.698Z,13.90
2022-11-21T06:31:13.266Z,14.60
2022-11-21T06:33:43.077Z,15.87
2022-11-21T06:36:13.130Z,15.63
2022-11-21T06:38:41.593Z,16.80
2022-11-21T06:41:14.440Z,16.30
2022-11-21T06:43:43.323Z,14.73
2022-11-21T06:46:12.761Z,14.73
2022-11-21T06:48:43.213Z,16.03
2022-11-21T06:51:17.096Z,15.03
2022-11-21T06:53:48.286Z,17.07
2022-11-21T06:56:18.740Z,16.30
2022-11-21T06:58:47.180Z,15.03
2022-11-21T07:01:15.770Z,15.30
2022-11-21T07:03:45.135Z,15.77
2022-11-21T07:06:13.561Z,14.67
2022-11-21T07:08:42.071Z,15.37
2022-11-21T07:11:28.024Z,14.43
2022-11-21T07:13:57.921Z,16.63
2022-11-21T07:16:30.798Z,15.77
2022-11-21T07:19:00.428Z,16.63
2022-11-21T07:21:29.079Z,17.60
2022-11-21T07:23:57.804Z,16.53
2022-11-21T07:26:26.426Z,15.60
2022-11-21T07:28:55.149Z,15.13
2022-11-21T07:31:25.131Z,17.10
2022-11-21T07:33:53.926Z,15.73
2022-11-21T07:36:24.252Z,17.03
2022-11-21T07:38:54.061Z,18.03
2022-11-21T07:41:22.535Z,17.03
2022-11-21T07:43:51.088Z,15.93
2022-11-21T07:46:19.792Z,17.43
2022-11-21T07:48:49.988Z,17.77
2022-11-21T07:51:18.489Z,16.50
2022-11-21T07:53:47.409Z,17.47
2022-11-21T07:56:16.040Z,19.03
2022-11-21T07:58:46.343Z,17.90
2022-11-21T08:01:14.837Z,18.37
2022-11-21T08:03:43.739Z,19.73
2022-11-21T08:06:14.828Z,19.13
2022-11-21T08:08:44.333Z,20.33
2022-11-21T08:11:13.014Z,18.80
2022-11-21T08:13:41.531Z,19.37
2022-11-21T08:16:09.968Z,19.27
2022-11-21T08:18:38.405Z,20.37
2022-11-21T08:21:07.034Z,18.30
2022-11-21T08:23:37.058Z,26.77
2022-11-21T08:26:05.597Z,27.13
2022-11-21T08:28:34.090Z,22.33
2022-11-21T08:31:05.201Z,17.37
2022-11-21T08:33:34.801Z,16.40
2022-11-21T08:36:05.662Z,17.13
2022-11-21T08:38:34.425Z,17.10
2022-11-21T08:41:21.937Z,16.40
2022-11-21T08:43:50.593Z,15.40
2022-11-21T08:46:20.123Z,15.30
2022-11-21T08:48:48.558Z,15.97
2022-11-21T08:51:17.046Z,17.07
2022-11-21T08:53:47.186Z,15.20
2022-11-21T08:56:17.277Z,15.77
2022-11-21T08:58:45.822Z,15.93
2022-11-21T09:01:14.427Z,17.03
2022-11-21T09:03:43.334Z,14.90
2022-11-21T09:06:12.526Z,14.23
2022-11-21T09:08:40.969Z,14.03
2022-11-21T09:11:11.049Z,14.17
2022-11-21T09:13:41.311Z,13.20
2022-11-21T09:16:30.572Z,13.80
2022-11-21T09:18:58.982Z,15.27
2022-11-21T09:21:27.602Z,13.70
2022-11-21T09:23:56.169Z,13.47
2022-11-21T09:26:24.669Z,13.37
2022-11-21T09:28:54.570Z,13.10
2022-11-21T09:31:23.158Z,11.40
2022-11-21T09:33:54.986Z,11.37
2022-11-21T09:36:23.744Z,10.57
2022-11-21T09:38:54.178Z,12.03
2022-11-21T09:41:46.732Z,11.30
2022-11-21T09:44:23.790Z,11.10
2022-11-21T09:46:59.829Z,10.43
2022-11-21T09:49:31.180Z,9.70
2022-11-21T09:52:01.581Z,9.77
2022-11-21T09:54:34.645Z,10.57
2022-11-21T09:57:03.143Z,9.83
2022-11-21T09:59:36.377Z,10.80
2022-11-21T10:02:12.422Z,9.13
2022-11-21T10:04:41.021Z,9.73
2022-11-21T10:07:16.062Z,9.43
2022-11-21T10:09:56.149Z,10.00
2022-11-21T10:12:40.575Z,10.37
2022-11-21T10:15:24.986Z,9.20
2022-11-21T10:18:26.081Z,9.47
2022-11-21T10:21:04.266Z,10.17
2022-11-21T10:23:57.889Z,9.20
2022-11-21T10:26:37.439Z,9.53
2022-11-21T10:29:12.737Z,10.30
2022-11-21T10:31:44.547Z,10.10
2022-11-21T10:34:16.540Z,7.70
2022-11-21T10:36:50.055Z,8.50
2022-11-21T10:39:22.199Z,8.30
2022-11-21T10:41:54.599Z,9.57
2022-11-21T10:44:45.638Z,8.30
2022-11-21T10:47:27.796Z,8.30
2022-11-21T10:50:14.423Z,8.10
2022-11-21T10:52:47.999Z,7.13
2022-11-21T10:55:19.190Z,7.57
2022-11-21T10:57:49.241Z,7.87
2022-11-21T11:00:23.639Z,7.67
2022-11-21T11:03:08.028Z,7.47
2022-11-21T11:05:37.646Z,7.73
2022-11-21T11:08:10.827Z,7.20
2022-11-21T11:10:41.199Z,6.93
2022-11-21T11:13:51.723Z,7.50
2022-11-21T11:16:22.649Z,7.67
2022-11-21T11:18:59.916Z,7.20
2022-11-21T11:21:30.590Z,7.43
2022-11-21T11:24:21.628Z,7.80
2022-11-21T11:26:57.643Z,7.33
2022-11-21T11:29:27.956Z,6.33
2022-11-21T11:31:59.164Z,7.07
2022-11-21T11:34:39.537Z,8.20
2022-11-21T11:37:21.164Z,8.43
2022-11-21T11:40:04.460Z,8.57
2022-11-21T11:43:10.021Z,8.13
2022-11-21T11:46:11.907Z,8.70
2022-11-21T11:48:56.505Z,9.10
2022-11-21T11:51:36.512Z,8.90
2022-11-21T11:54:15.497Z,8.83
2022-11-21T11:56:44.704Z,8.83
2022-11-21T11:59:21.903Z,9.50
2022-11-21T12:01:55.125Z,8.73
2022-11-21T12:04:26.438Z,9.37
2022-11-21T12:08:20.020Z,8.93
2022-11-21T12:10:00.660Z,8.53
2022-11-21T12:12:35.388Z,9.40
2022-11-21T12:15:30.211Z,8.47
2022-11-21T12:18:13.500Z,9.03
2022-11-21T12:20:52.688Z,9.03
2022-11-21T12:23:25.209Z,8.70
2022-11-21T12:26:06.400Z,10.83
2022-11-21T12:28:47.002Z,9.27
2022-11-21T12:31:19.380Z,9.43
2022-11-21T12:33:56.210Z,9.73
2022-11-21T12:36:36.941Z,9.67
2022-11-21T12:39:32.930Z,10.13
2022-11-21T12:42:28.009Z,9.90
2022-11-21T12:45:08.811Z,9.20
2022-11-21T12:48:23.342Z,10.37
2022-11-21T12:51:17.066Z,11.23
2022-11-21T12:54:12.561Z,10.30
2022-11-21T12:56:49.667Z,9.33
2022-11-21T12:59:19.209Z,11.70
2022-11-21T13:01:59.227Z,12.07
2022-11-21T13:04:34.734Z,11.10
2022-11-21T13:07:05.346Z,11.07
2022-11-21T13:09:41.600Z,10.47
2022-11-21T13:12:17.433Z,11.23
2022-11-21T13:14:52.309Z,11.73
2022-11-21T13:17:30.822Z,10.37
2022-11-21T13:20:03.631Z,10.73
2022-11-21T13:23:07.838Z,10.10
2022-11-21T13:25:53.740Z,9.97
2022-11-21T13:28:32.762Z,10.37
2022-11-21T13:31:03.302Z,11.27
2022-11-21T13:33:52.663Z,10.57
2022-11-21T13:36:43.684Z,11.90
2022-11-21T13:39:37.469Z,11.27
2022-11-21T13:42:25.480Z,11.70
2022-11-21T13:44:55.979Z,11.97
2022-11-21T13:48:00.378Z,9.97
2022-11-21T13:51:02.266Z,11.27
2022-11-21T13:53:58.795Z,10.87
2022-11-21T13:56:36.711Z,11.70
2022-11-21T13:59:31.522Z,11.13
2022-11-21T14:02:36.671Z,11.87
2022-11-21T14:05:26.271Z,11.90
2022-11-21T14:07:55.091Z,11.10
2022-11-21T14:10:34.372Z,10.70
2022-11-21T14:13:04.705Z,10.37
2022-11-21T14:15:41.060Z,9.93
2022-11-21T14:18:22.740Z,10.50
2022-11-21T14:20:56.960Z,9.93
2022-11-21T14:23:28.223Z,11.63
2022-11-21T14:26:00.480Z,11.87
2022-11-21T14:28:30.961Z,11.50
2022-11-21T14:31:02.171Z,11.03
2022-11-21T14:33:34.169Z,10.73
2022-11-21T14:36:09.516Z,10.13
2022-11-21T14:38:44.488Z,10.30
2022-11-21T14:41:32.128Z,10.90
2022-11-21T14:44:15.920Z,11.27
2022-11-21T14:46:45.342Z,11.60
2022-11-21T14:49:30.388Z,11.07
2022-11-21T14:52:18.363Z,10.33
2022-11-21T14:55:28.054Z,12.53
2022-11-21T14:57:43.832Z,13.40
2022-11-21T15:00:51.353Z,12.67
2022-11-21T15:03:20.334Z,12.17
2022-11-21T15:09:29.008Z,11.87
2022-11-21T15:11:44.919Z,10.33
2022-11-21T15:14:22.810Z,13.67
2022-11-21T15:16:56.520Z,14.27
2022-11-21T15:19:28.020Z,13.43
2022-11-21T15:22:01.208Z,15.80
2022-11-21T15:24:40.588Z,15.33
2022-11-21T15:27:32.171Z,14.50
2022-11-21T15:30:23.223Z,14.47
2022-11-21T15:33:03.009Z,13.27
2022-11-21T15:35:42.778Z,14.93
2022-11-21T15:38:29.105Z,13.10
2022-11-21T15:40:59.819Z,12.90
2022-11-21T15:43:40.853Z,13.80
2022-11-21T15:46:18.070Z,14.13
2022-11-21T15:48:48.745Z,11.70
2022-11-21T15:51:31.831Z,11.73
2022-11-21T15:54:11.558Z,11.43
2022-11-21T15:56:40.628Z,11.30
2022-11-21T15:59:09.288Z,13.50
2022-11-21T16:01:38.890Z,14.57
2022-11-21T16:04:09.752Z,14.33
2022-11-21T16:06:39.348Z,14.27
2022-11-21T16:09:09.836Z,12.93
2022-11-21T16:11:40.591Z,14.13
2022-11-21T16:14:10.247Z,12.70
2022-11-21T16:16:43.225Z,12.83
2022-11-21T16:19:13.965Z,13.77
2022-11-21T16:21:43.373Z,13.47
2022-11-21T16:24:13.291Z,13.97
2022-11-21T16:26:42.033Z,12.30
2022-11-21T16:29:12.579Z,13.87
2022-11-21T16:31:41.291Z,13.20
2022-11-21T16:34:09.931Z,13.03
2022-11-21T16:36:38.892Z,13.37
2022-11-21T16:39:12.379Z,12.90
2022-11-21T16:41:46.802Z,12.57
2022-11-21T16:44:17.031Z,13.50
2022-11-21T16:46:49.498Z,16.00
2022-11-21T16:49:18.960Z,14.70
2022-11-21T16:51:47.568Z,15.73
2022-11-21T16:54:17.260Z,14.80
2022-11-21T16:56:47.280Z,14.97
2022-11-21T16:59:16.169Z,15.37
2022-11-21T17:01:44.983Z,23.00
2022-11-21T17:04:17.228Z,17.07
2022-11-21T17:06:49.105Z,16.43
2022-11-21T17:09:18.127Z,16.30
2022-11-21T17:11:49.736Z,16.70
2022-11-21T17:14:18.607Z,25.57
2022-11-21T17:16:49.247Z,17.80
2022-11-21T17:19:17.952Z,16.73
2022-11-21T17:21:46.699Z,18.13
2022-11-21T17:24:15.524Z,18.00
2022-11-21T17:26:44.329Z,18.33
2022-11-21T17:29:14.265Z,17.90
2022-11-21T17:31:43.051Z,17.03
2022-11-21T17:34:11.727Z,17.17
2022-11-21T17:36:41.178Z,16.03
2022-11-21T17:39:09.813Z,16.47
2022-11-21T17:41:39.717Z,17.20
2022-11-21T17:44:08.390Z,18.17
2022-11-21T17:46:38.331Z,18.50
2022-11-21T17:49:06.974Z,18.20
2022-11-21T17:51:37.538Z,16.60
2022-11-21T17:54:08.269Z,18.87
2022-11-21T17:56:45.082Z,18.97
2022-11-21T17:59:15.369Z,17.73
2022-11-21T18:01:46.325Z,19.00
2022-11-21T18:04:17.572Z,17.73
2022-11-21T18:06:47.173Z,16.33
2022-11-21T18:09:16.748Z,20.10
2022-11-21T18:11:46.546Z,18.30
2022-11-21T18:14:15.689Z,16.70
2022-11-21T18:16:52.535Z,17.13
2022-11-21T18:19:22.265Z,17.43
2022-11-21T18:21:51.879Z,17.87
2022-11-21T18:24:20.334Z,17.60
2022-11-21T18:26:48.893Z,18.20
2022-11-21T18:32:08.481Z,18.47
2022-11-21T18:34:37.193Z,18.50
2022-11-21T18:37:05.976Z,18.20
2022-11-21T18:39:34.624Z,18.07
2022-11-21T18:42:03.137Z,18.77
2022-11-21T18:44:31.916Z,17.87
2022-11-21T18:47:00.483Z,18.10
2022-11-21T18:49:30.580Z,18.97
2022-11-21T18:51:59.731Z,18.27
2022-11-21T18:54:28.161Z,18.07
2022-11-21T18:56:57.510Z,16.57
2022-11-21T18:59:27.059Z,17.17
2022-11-21T19:01:56.125Z,17.10
2022-11-21T19:04:25.766Z,18.20
2022-11-21T19:06:55.692Z,17.23
2022-11-21T19:09:28.062Z,16.57
2022-11-21T19:12:06.117Z,17.07
2022-11-21T19:14:34.672Z,17.73
2022-11-21T19:17:03.570Z,17.60
2022-11-21T19:19:34.616Z,18.37
2022-11-21T19:22:06.434Z,16.70
2022-11-21T19:24:35.103Z,18.53
2022-11-21T19:27:03.919Z,18.13
2022-11-21T19:29:34.275Z,18.47
2022-11-21T19:32:03.200Z,16.00
2022-11-21T19:34:32.070Z,16.13
2022-11-21T19:37:00.800Z,16.60
2022-11-21T19:39:31.586Z,16.33
2022-11-21T19:42:06.836Z,16.83
2022-11-21T19:44:35.419Z,16.37
2022-11-21T19:47:04.231Z,16.40
2022-11-21T19:49:32.794Z,16.97
2022-11-21T19:52:01.318Z,14.73
2022-11-21T19:54:32.468Z,15.00
2022-11-21T19:57:12.400Z,15.87
2022-11-21T19:59:46.446Z,15.53
2022-11-21T20:02:21.640Z,15.10
2022-11-21T20:04:50.690Z,15.07
2022-11-21T20:07:19.145Z,14.87
2022-11-21T20:09:49.275Z,15.23
2022-11-21T20:12:17.662Z,14.50
2022-11-21T20:14:48.462Z,14.73
2022-11-21T20:17:17.008Z,13.10
2022-11-21T20:19:50.592Z,14.20
2022-11-21T20:22:19.538Z,13.50
2022-11-21T20:24:52.015Z,12.33
2022-11-21T20:27:21.060Z,12.57
2022-11-21T20:29:49.532Z,12.23
2022-11-21T20:32:18.098Z,12.40
2022-11-21T20:34:46.529Z,11.77
2022-11-21T20:37:15.288Z,11.87
2022-11-21T20:39:44.408Z,11.30
2022-11-21T20:42:15.330Z,12.10
2022-11-21T20:45:41.715Z,12.20
2022-11-21T20:47:32.059Z,10.77
2022-11-21T20:50:01.702Z,11.17
2022-11-21T20:55:18.835Z,11.40
2022-11-21T20:57:49.780Z,16.43
2022-11-21T21:00:19.822Z,11.43
2022-11-21T21:02:58.554Z,10.47
2022-11-21T21:05:33.012Z,10.40
2022-11-21T21:08:01.350Z,11.27
2022-11-21T21:10:46.059Z,10.47
2022-11-21T21:13:20.480Z,9.60
2022-11-21T21:15:49.540Z,10.13
2022-11-21T21:18:18.080Z,9.70
2022-11-21T21:21:14.918Z,11.23
2022-11-21T21:23:38.093Z,10.03
2022-11-21T21:26:11.731Z,10.70
2022-11-21T21:28:41.721Z,9.83
2022-11-21T21:31:12.181Z,11.13
2022-11-21T21:33:41.524Z,10.37
2022-11-21T21:36:12.004Z,9.97
2022-11-21T21:38:41.730Z,10.33
2022-11-21T21:41:14.097Z,9.87
2022-11-21T21:43:44.095Z,10.87
2022-11-21T21:46:14.524Z,10.00
2022-11-21T21:48:44.396Z,9.87
2022-11-21T21:51:16.510Z,10.13
2022-11-21T21:53:46.265Z,10.57
2022-11-21T21:56:17.419Z,10.87
2022-11-21T21:58:48.816Z,9.93
2022-11-21T22:01:19.149Z,10.00
2022-11-21T22:03:49.003Z,9.90
2022-11-21T22:06:19.842Z,9.90
2022-11-21T22:08:49.658Z,10.10
2022-11-21T22:11:21.084Z,10.87
2022-11-21T22:13:54.894Z,10.23
2022-11-21T22:16:23.872Z,9.90
2022-11-21T22:18:52.939Z,9.50
2022-11-21T22:21:23.911Z,10.27
2022-11-21T22:26:41.238Z,10.50
2022-11-21T22:29:11.221Z,10.53
2022-11-21T22:31:39.708Z,10.77
2022-11-21T22:34:08.274Z,11.70
2022-11-21T22:36:36.664Z,11.47
2022-11-21T22:39:05.246Z,11.13
2022-11-21T22:41:33.600Z,12.20
2022-11-21T22:44:02.042Z,11.90
2022-11-21T22:46:32.647Z,11.60
2022-11-21T22:49:01.144Z,30.63
2022-11-21T22:51:31.066Z,14.07
2022-11-21T22:53:59.610Z,11.90
2022-11-21T22:56:28.318Z,12.67
2022-11-21T22:58:57.369Z,11.90
2022-11-21T23:01:27.285Z,12.23
2022-11-21T23:03:57.191Z,13.20
2022-11-21T23:06:28.131Z,11.93
2022-11-21T23:08:58.093Z,11.83
2022-11-21T23:11:28.995Z,12.70
2022-11-21T23:13:58.299Z,12.97
2022-11-21T23:16:27.404Z,12.83
2022-11-21T23:18:57.796Z,13.40
2022-11-21T23:21:26.223Z,13.57
2022-11-21T23:23:54.653Z,13.73
2022-11-21T23:26:24.065Z,12.30
2022-11-21T23:28:52.465Z,13.93
2022-11-21T23:31:20.880Z,13.40
2022-11-21T23:33:49.335Z,13.70
2022-11-21T23:36:19.227Z,14.40
2022-11-21T23:38:47.679Z,14.10
2022-11-21T23:41:16.487Z,14.97
2022-11-21T23:43:44.842Z,14.03
2022-11-21T23:46:13.265Z,15.87
2022-11-21T23:48:41.689Z,14.33
